sensor_id;sensor_type;location;lat;lon;timestamp;pressure;altitude;pressure_sealevel;temperature;humidity
46347;BME280;32057;47.830;19.046;2023-04-15T00:00:27;99221.31;;;6.21;100.00
46347;BME280;32057;47.830;19.046;2023-04-15T00:02:53;99217.03;;;6.22;100.00
46347;BME280;32057;47.830;19.046;2023-04-15T00:05:19;99222.19;;;6.22;100.00
46347;BME280;32057;47.830;19.046;2023-04-15T00:07:45;99214.44;;;6.22;100.00
46347;BME280;32057;47.830;19.046;2023-04-15T00:10:11;99215.13;;;6.14;100.00
46347;BME280;32057;47.830;19.046;2023-04-15T00:12:37;99219.41;;;6.12;100.00
46347;BME280;32057;47.830;19.046;2023-04-15T00:15:02;99219.53;;;6.18;100.00
46347;BME280;32057;47.830;19.046;2023-04-15T00:17:28;99211.78;;;6.18;100.00
46347;BME280;32057;47.830;19.046;2023-04-15T00:19:54;99210.91;;;6.18;100.00
46347;BME280;32057;47.830;19.046;2023-04-15T00:22:19;99209.94;;;6.13;100.00
46347;BME280;32057;47.830;19.046;2023-04-15T00:24:45;99209.97;;;6.14;100.00
46347;BME280;32057;47.830;19.046;2023-04-15T00:27:11;99211.69;;;6.14;100.00
46347;BME280;32057;47.830;19.046;2023-04-15T00:29:36;99216.91;;;6.15;100.00
46347;BME280;32057;47.830;19.046;2023-04-15T00:32:02;99208.38;;;6.20;100.00
46347;BME280;32057;47.830;19.046;2023-04-15T00:34:27;99210.84;;;6.15;100.00
46347;BME280;32057;47.830;19.046;2023-04-15T00:36:53;99205.63;;;6.12;100.00
46347;BME280;32057;47.830;19.046;2023-04-15T00:39:19;99203.00;;;6.10;100.00
46347;BME280;32057;47.830;19.046;2023-04-15T00:41:45;99199.69;;;6.16;100.00
46347;BME280;32057;47.830;19.046;2023-04-15T00:44:10;99200.47;;;6.12;100.00
46347;BME280;32057;47.830;19.046;2023-04-15T00:46:37;99201.28;;;6.09;100.00
46347;BME280;32057;47.830;19.046;2023-04-15T00:49:04;99203.59;;;5.95;100.00
46347;BME280;32057;47.830;19.046;2023-04-15T00:51:30;99204.56;;;6.02;100.00
46347;BME280;32057;47.830;19.046;2023-04-15T00:53:58;99212.47;;;6.10;100.00
46347;BME280;32057;47.830;19.046;2023-04-15T00:56:24;99211.63;;;6.09;100.00
46347;BME280;32057;47.830;19.046;2023-04-15T00:58:51;99210.72;;;6.07;100.00
46347;BME280;32057;47.830;19.046;2023-04-15T01:01:21;99213.34;;;6.10;100.00
46347;BME280;32057;47.830;19.046;2023-04-15T01:03:48;99215.03;;;6.08;100.00
46347;BME280;32057;47.830;19.046;2023-04-15T01:06:14;99217.59;;;6.08;100.00
46347;BME280;32057;47.830;19.046;2023-04-15T01:08:41;99214.91;;;6.02;100.00
46347;BME280;32057;47.830;19.046;2023-04-15T01:11:06;99217.47;;;6.02;100.00
46347;BME280;32057;47.830;19.046;2023-04-15T01:13:33;99210.50;;;5.98;100.00
46347;BME280;32057;47.830;19.046;2023-04-15T01:15:59;99217.41;;;5.99;100.00
46347;BME280;32057;47.830;19.046;2023-04-15T01:18:26;99208.06;;;6.04;100.00
46347;BME280;32057;47.830;19.046;2023-04-15T01:20:52;99213.28;;;6.07;100.00
46347;BME280;32057;47.830;19.046;2023-04-15T01:23:17;99213.41;;;6.13;100.00
46347;BME280;32057;47.830;19.046;2023-04-15T01:25:43;99213.41;;;6.13;100.00
46347;BME280;32057;47.830;19.046;2023-04-15T01:28:09;99207.44;;;6.16;100.00
46347;BME280;32057;47.830;19.046;2023-04-15T01:30:35;99208.34;;;6.18;100.00
46347;BME280;32057;47.830;19.046;2023-04-15T01:33:00;99211.72;;;6.15;100.00
46347;BME280;32057;47.830;19.046;2023-04-15T01:35:26;99202.31;;;6.17;100.00
46347;BME280;32057;47.830;19.046;2023-04-15T01:37:53;99190.25;;;6.18;100.00
46347;BME280;32057;47.830;19.046;2023-04-15T01:40:20;99195.47;;;6.20;100.00
46347;BME280;32057;47.830;19.046;2023-04-15T01:42:46;99195.50;;;6.21;100.00
46347;BME280;32057;47.830;19.046;2023-04-15T01:45:12;99204.09;;;6.22;100.00
46347;BME280;32057;47.830;19.046;2023-04-15T01:47:38;99209.19;;;6.18;100.00
46347;BME280;32057;47.830;19.046;2023-04-15T01:50:04;99207.47;;;6.17;100.00
46347;BME280;32057;47.830;19.046;2023-04-15T01:52:30;99210.84;;;6.15;100.00
46347;BME280;32057;47.830;19.046;2023-04-15T01:54:56;99204.69;;;6.08;100.00
46347;BME280;32057;47.830;19.046;2023-04-15T01:57:21;99201.16;;;6.03;100.00
46347;BME280;32057;47.830;19.046;2023-04-15T01:59:47;99199.41;;;6.02;100.00
46347;BME280;32057;47.830;19.046;2023-04-15T02:02:12;99192.53;;;6.03;100.00
46347;BME280;32057;47.830;19.046;2023-04-15T02:04:38;99193.53;;;6.09;100.00
46347;BME280;32057;47.830;19.046;2023-04-15T02:07:03;99196.13;;;6.09;100.00
46347;BME280;32057;47.830;19.046;2023-04-15T02:09:29;99202.97;;;6.07;100.00
46347;BME280;32057;47.830;19.046;2023-04-15T02:11:55;99198.59;;;6.05;100.00
46347;BME280;32057;47.830;19.046;2023-04-15T02:14:20;99208.91;;;6.03;100.00
46347;BME280;32057;47.830;19.046;2023-04-15T02:16:46;99201.00;;;5.97;100.00
46347;BME280;32057;47.830;19.046;2023-04-15T02:19:11;99206.16;;;5.97;100.00
46347;BME280;32057;47.830;19.046;2023-04-15T02:21:39;99205.22;;;5.93;100.00
46347;BME280;32057;47.830;19.046;2023-04-15T02:24:05;99206.09;;;5.94;100.00
46347;BME280;32057;47.830;19.046;2023-04-15T02:26:31;99207.84;;;5.95;100.00
46347;BME280;32057;47.830;19.046;2023-04-15T02:28:58;99202.63;;;5.92;100.00
46347;BME280;32057;47.830;19.046;2023-04-15T02:31:24;99197.44;;;5.92;100.00
46347;BME280;32057;47.830;19.046;2023-04-15T02:33:49;99194.97;;;5.96;100.00
46347;BME280;32057;47.830;19.046;2023-04-15T02:36:15;99201.09;;;6.00;100.00
46347;BME280;32057;47.830;19.046;2023-04-15T02:38:40;99196.91;;;6.05;100.00
46347;BME280;32057;47.830;19.046;2023-04-15T02:41:11;99196.09;;;6.08;100.00
46347;BME280;32057;47.830;19.046;2023-04-15T02:43:37;99192.69;;;6.10;100.00
46347;BME280;32057;47.830;19.046;2023-04-15T02:46:04;99197.81;;;6.07;100.00
46347;BME280;32057;47.830;19.046;2023-04-15T02:48:30;99201.28;;;6.09;100.00
46347;BME280;32057;47.830;19.046;2023-04-15T02:51:15;99208.97;;;6.06;100.00
46347;BME280;32057;47.830;19.046;2023-04-15T02:53:42;99202.84;;;6.03;100.00
46347;BME280;32057;47.830;19.046;2023-04-15T02:56:08;99201.22;;;6.06;100.00
46347;BME280;32057;47.830;19.046;2023-04-15T02:58:34;99206.50;;;6.12;100.00
46347;BME280;32057;47.830;19.046;2023-04-15T03:01:00;99203.91;;;6.12;100.00
46347;BME280;32057;47.830;19.046;2023-04-15T03:03:26;99203.09;;;6.13;100.00
46347;BME280;32057;47.830;19.046;2023-04-15T03:05:52;99200.53;;;6.16;100.00
46347;BME280;32057;47.830;19.046;2023-04-15T03:08:18;99191.94;;;6.16;100.00
46347;BME280;32057;47.830;19.046;2023-04-15T03:10:44;99206.69;;;6.22;100.00
46347;BME280;32057;47.830;19.046;2023-04-15T03:13:10;99198.94;;;6.22;100.00
46347;BME280;32057;47.830;19.046;2023-04-15T03:15:35;99191.13;;;6.18;100.00
46347;BME280;32057;47.830;19.046;2023-04-15T03:18:01;99179.06;;;6.17;100.00
46347;BME280;32057;47.830;19.046;2023-04-15T03:20:26;99190.19;;;6.13;100.00
46347;BME280;32057;47.830;19.046;2023-04-15T03:22:52;99185.88;;;6.14;100.00
46347;BME280;32057;47.830;19.046;2023-04-15T03:25:17;99190.31;;;6.21;100.00
46347;BME280;32057;47.830;19.046;2023-04-15T03:27:43;99205.84;;;6.23;100.00
46347;BME280;32057;47.830;19.046;2023-04-15T03:30:08;99214.47;;;6.23;100.00
46347;BME280;32057;47.830;19.046;2023-04-15T03:32:34;99220.34;;;6.16;100.00
46347;BME280;32057;47.830;19.046;2023-04-15T03:35:00;99208.28;;;6.16;100.00
46347;BME280;32057;47.830;19.046;2023-04-15T03:37:25;99203.91;;;6.12;100.00
46347;BME280;32057;47.830;19.046;2023-04-15T03:39:51;99194.94;;;5.95;100.00
46347;BME280;32057;47.830;19.046;2023-04-15T03:42:16;99200.84;;;5.91;100.00
46347;BME280;32057;47.830;19.046;2023-04-15T03:44:42;99200.94;;;5.94;100.00
46347;BME280;32057;47.830;19.046;2023-04-15T03:47:07;99201.09;;;6.00;100.00
46347;BME280;32057;47.830;19.046;2023-04-15T03:49:33;99202.03;;;6.04;100.00
46347;BME280;32057;47.830;19.046;2023-04-15T03:51:58;99197.81;;;6.07;100.00
46347;BME280;32057;47.830;19.046;2023-04-15T03:54:24;99196.09;;;6.08;100.00
46347;BME280;32057;47.830;19.046;2023-04-15T03:56:49;99188.34;;;6.08;100.00
46347;BME280;32057;47.830;19.046;2023-04-15T03:59:15;99192.63;;;6.07;100.00
46347;BME280;32057;47.830;19.046;2023-04-15T04:01:40;99191.03;;;6.14;100.00
46347;BME280;32057;47.830;19.046;2023-04-15T04:04:06;99199.75;;;6.19;100.00
46347;BME280;32057;47.830;19.046;2023-04-15T04:06:31;99197.09;;;6.16;100.00
46347;BME280;32057;47.830;19.046;2023-04-15T04:08:57;99201.44;;;6.18;100.00
46347;BME280;32057;47.830;19.046;2023-04-15T04:11:22;99192.81;;;6.16;100.00
46347;BME280;32057;47.830;19.046;2023-04-15T04:13:47;99197.97;;;6.16;100.00
46347;BME280;32057;47.830;19.046;2023-04-15T04:16:13;99203.25;;;6.23;100.00
46347;BME280;32057;47.830;19.046;2023-04-15T04:18:38;99198.91;;;6.20;100.00
46347;BME280;32057;47.830;19.046;2023-04-15T04:21:04;99206.72;;;6.25;100.00
46347;BME280;32057;47.830;19.046;2023-04-15T04:23:29;99208.53;;;6.27;100.00
46347;BME280;32057;47.830;19.046;2023-04-15T04:25:55;99199.91;;;6.28;100.00
46347;BME280;32057;47.830;19.046;2023-04-15T04:28:20;99206.81;;;6.28;100.00
46347;BME280;32057;47.830;19.046;2023-04-15T04:30:46;99199.97;;;6.30;100.00
46347;BME280;32057;47.830;19.046;2023-04-15T04:33:12;99194.81;;;6.33;100.00
46347;BME280;32057;47.830;19.046;2023-04-15T04:35:37;99196.59;;;6.34;100.00
46347;BME280;32057;47.830;19.046;2023-04-15T04:38:03;99191.34;;;6.31;100.00
46347;BME280;32057;47.830;19.046;2023-04-15T04:40:28;99197.41;;;6.33;100.00
46347;BME280;32057;47.830;19.046;2023-04-15T04:42:54;99194.81;;;6.33;100.00
46347;BME280;32057;47.830;19.046;2023-04-15T04:45:19;99198.38;;;6.38;100.00
46347;BME280;32057;47.830;19.046;2023-04-15T04:47:45;99194.97;;;6.39;100.00
46347;BME280;32057;47.830;19.046;2023-04-15T04:50:11;99186.38;;;6.40;100.00
46347;BME280;32057;47.830;19.046;2023-04-15T04:52:37;99198.47;;;6.41;100.00
46347;BME280;32057;47.830;19.046;2023-04-15T04:55:03;99189.84;;;6.42;100.00
46347;BME280;32057;47.830;19.046;2023-04-15T04:57:28;99193.41;;;6.47;100.00
46347;BME280;32057;47.830;19.046;2023-04-15T04:59:53;99195.13;;;6.48;100.00
46347;BME280;32057;47.830;19.046;2023-04-15T05:02:19;99190.03;;;6.51;100.00
46347;BME280;32057;47.830;19.046;2023-04-15T05:04:44;99202.09;;;6.52;100.00
46347;BME280;32057;47.830;19.046;2023-04-15T05:07:10;99201.25;;;6.55;100.00
46347;BME280;32057;47.830;19.046;2023-04-15T05:09:35;99200.47;;;6.57;100.00
46347;BME280;32057;47.830;19.046;2023-04-15T05:12:02;99191.13;;;6.66;100.00
46347;BME280;32057;47.830;19.046;2023-04-15T05:14:28;99193.75;;;6.69;100.00
46347;BME280;32057;47.830;19.046;2023-04-15T05:16:53;99193.88;;;6.73;100.00
46347;BME280;32057;47.830;19.046;2023-04-15T05:19:19;99192.06;;;6.71;100.00
46347;BME280;32057;47.830;19.046;2023-04-15T05:21:44;99185.34;;;6.79;100.00
46347;BME280;32057;47.830;19.046;2023-04-15T05:24:10;99185.44;;;6.85;100.00
46347;BME280;32057;47.830;19.046;2023-04-15T05:26:35;99176.03;;;6.90;100.00
46347;BME280;32057;47.830;19.046;2023-04-15T05:29:01;99171.75;;;6.92;100.00
46347;BME280;32057;47.830;19.046;2023-04-15T05:31:26;99177.00;;;6.95;100.00
46347;BME280;32057;47.830;19.046;2023-04-15T05:33:51;99171.91;;;7.02;100.00
46347;BME280;32057;47.830;19.046;2023-04-15T05:36:17;99179.81;;;7.09;100.00
46347;BME280;32057;47.830;19.046;2023-04-15T05:38:42;99184.22;;;7.15;100.00
46347;BME280;32057;47.830;19.046;2023-04-15T05:41:08;99186.75;;;7.13;100.00
46347;BME280;32057;47.830;19.046;2023-04-15T05:43:33;99192.72;;;7.11;100.00
46347;BME280;32057;47.830;19.046;2023-04-15T05:45:58;99194.56;;;7.16;100.00
46347;BME280;32057;47.830;19.046;2023-04-15T05:48:24;99195.44;;;7.18;100.00
46347;BME280;32057;47.830;19.046;2023-04-15T05:50:49;99190.28;;;7.17;100.00
46347;BME280;32057;47.830;19.046;2023-04-15T05:53:15;99191.09;;;7.16;100.00
46347;BME280;32057;47.830;19.046;2023-04-15T05:55:40;99194.66;;;7.21;100.00
46347;BME280;32057;47.830;19.046;2023-04-15T05:58:06;99195.59;;;7.28;100.00
46347;BME280;32057;47.830;19.046;2023-04-15T06:00:31;99201.72;;;7.34;100.00
46347;BME280;32057;47.830;19.046;2023-04-15T06:02:57;99202.69;;;7.40;100.00
46347;BME280;32057;47.830;19.046;2023-04-15T06:05:23;99201.00;;;7.43;100.00
46347;BME280;32057;47.830;19.046;2023-04-15T06:07:49;99201.94;;;7.48;100.00
46347;BME280;32057;47.830;19.046;2023-04-15T06:10:14;99204.50;;;7.45;100.00
46347;BME280;32057;47.830;19.046;2023-04-15T06:12:40;99207.97;;;7.49;100.00
46347;BME280;32057;47.830;19.046;2023-04-15T06:15:06;99211.50;;;7.54;100.00
46347;BME280;32057;47.830;19.046;2023-04-15T06:17:34;99214.22;;;7.62;100.00
46347;BME280;32057;47.830;19.046;2023-04-15T06:19:59;99216.84;;;7.65;100.00
46347;BME280;32057;47.830;19.046;2023-04-15T06:22:24;99219.44;;;7.66;100.00
46347;BME280;32057;47.830;19.046;2023-04-15T06:24:50;99216.00;;;7.66;100.00
46347;BME280;32057;47.830;19.046;2023-04-15T06:27:16;99220.31;;;7.65;100.00
46347;BME280;32057;47.830;19.046;2023-04-15T06:29:45;99229.84;;;7.68;100.00
46347;BME280;32057;47.830;19.046;2023-04-15T06:32:10;99225.53;;;7.70;100.00
46347;BME280;32057;47.830;19.046;2023-04-15T06:34:36;99229.88;;;7.72;100.00
46347;BME280;32057;47.830;19.046;2023-04-15T06:37:01;99228.22;;;7.76;100.00
46347;BME280;32057;47.830;19.046;2023-04-15T06:39:27;99229.13;;;7.78;100.00
46347;BME280;32057;47.830;19.046;2023-04-15T06:41:52;99230.91;;;7.82;100.00
46347;BME280;32057;47.830;19.046;2023-04-15T06:44:18;99232.72;;;7.89;100.00
46347;BME280;32057;47.830;19.046;2023-04-15T06:46:43;99236.44;;;8.10;100.00
46347;BME280;32057;47.830;19.046;2023-04-15T06:49:09;99225.28;;;8.15;100.00
46347;BME280;32057;47.830;19.046;2023-04-15T06:51:35;99235.69;;;8.17;100.00
46347;BME280;32057;47.830;19.046;2023-04-15T06:54:01;99239.13;;;8.17;100.00
46347;BME280;32057;47.830;19.046;2023-04-15T06:56:33;99240.00;;;8.18;100.00
46347;BME280;32057;47.830;19.046;2023-04-15T06:58:59;99249.53;;;8.22;100.00
46347;BME280;32057;47.830;19.046;2023-04-15T07:01:25;99244.41;;;8.25;100.00
46347;BME280;32057;47.830;19.046;2023-04-15T07:03:50;99251.31;;;8.23;100.00
46347;BME280;32057;47.830;19.046;2023-04-15T07:06:16;99253.06;;;8.26;100.00
46347;BME280;32057;47.830;19.046;2023-04-15T07:08:42;99259.88;;;8.19;100.00
46347;BME280;32057;47.830;19.046;2023-04-15T07:11:07;99259.88;;;8.19;100.00
46347;BME280;32057;47.830;19.046;2023-04-15T07:13:33;99257.31;;;8.22;100.00
46347;BME280;32057;47.830;19.046;2023-04-15T07:15:58;99266.75;;;8.18;100.00
46347;BME280;32057;47.830;19.046;2023-04-15T07:18:24;99265.03;;;8.17;100.00
46347;BME280;32057;47.830;19.046;2023-04-15T07:20:49;99259.72;;;8.08;100.00
46347;BME280;32057;47.830;19.046;2023-04-15T07:23:15;99263.22;;;8.10;100.00
46347;BME280;32057;47.830;19.046;2023-04-15T07:25:41;99267.53;;;8.10;100.00
46347;BME280;32057;47.830;19.046;2023-04-15T07:28:06;99264.16;;;8.15;100.00
46347;BME280;32057;47.830;19.046;2023-04-15T07:30:32;99266.00;;;8.26;100.00
46347;BME280;32057;47.830;19.046;2023-04-15T07:32:58;99261.78;;;8.34;100.00
46347;BME280;32057;47.830;19.046;2023-04-15T07:35:23;99266.13;;;8.35;100.00
46347;BME280;32057;47.830;19.046;2023-04-15T07:37:50;99268.00;;;8.44;100.00
46347;BME280;32057;47.830;19.046;2023-04-15T07:40:16;99266.31;;;8.47;100.00
46347;BME280;32057;47.830;19.046;2023-04-15T07:42:42;99267.13;;;8.46;100.00
46347;BME280;32057;47.830;19.046;2023-04-15T07:45:08;99284.44;;;8.47;100.00
46347;BME280;32057;47.830;19.046;2023-04-15T07:47:34;99282.81;;;8.55;100.00
46347;BME280;32057;47.830;19.046;2023-04-15T07:49:59;99286.44;;;8.70;100.00
46347;BME280;32057;47.830;19.046;2023-04-15T07:52:24;99278.69;;;8.74;100.00
46347;BME280;32057;47.830;19.046;2023-04-15T07:54:50;99278.84;;;8.87;100.00
46347;BME280;32057;47.830;19.046;2023-04-15T07:57:15;99278.91;;;8.96;100.00
46347;BME280;32057;47.830;19.046;2023-04-15T07:59:41;99278.06;;;8.98;100.00
46347;BME280;32057;47.830;19.046;2023-04-15T08:02:07;99284.16;;;8.99;100.00
46347;BME280;32057;47.830;19.046;2023-04-15T08:04:32;99291.16;;;9.08;100.00
46347;BME280;32057;47.830;19.046;2023-04-15T08:06:58;99283.41;;;9.11;100.00
46347;BME280;32057;47.830;19.046;2023-04-15T08:09:24;99288.72;;;9.26;100.00
46347;BME280;32057;47.830;19.046;2023-04-15T08:11:49;99287.03;;;9.34;100.00
46347;BME280;32057;47.830;19.046;2023-04-15T08:14:17;99287.09;;;9.37;100.00
46347;BME280;32057;47.830;19.046;2023-04-15T08:16:43;99287.19;;;9.47;100.00
46347;BME280;32057;47.830;19.046;2023-04-15T08:19:08;99285.50;;;9.56;100.00
46347;BME280;32057;47.830;19.046;2023-04-15T08:21:34;99295.09;;;9.65;100.00
46347;BME280;32057;47.830;19.046;2023-04-15T08:23:59;99291.75;;;9.82;100.00
46347;BME280;32057;47.830;19.046;2023-04-15T08:26:25;99290.97;;;9.98;100.00
46347;BME280;32057;47.830;19.046;2023-04-15T08:28:51;99287.75;;;10.33;100.00
46347;BME280;32057;47.830;19.046;2023-04-15T08:31:17;99289.56;;;10.55;100.00
46347;BME280;32057;47.830;19.046;2023-04-15T08:33:43;99294.81;;;10.65;100.00
46347;BME280;32057;47.830;19.046;2023-04-15T08:36:09;99288.78;;;10.83;100.00
46347;BME280;32057;47.830;19.046;2023-04-15T08:38:35;99291.34;;;10.72;100.00
46347;BME280;32057;47.830;19.046;2023-04-15T08:41:07;99290.47;;;10.65;100.00
46347;BME280;32057;47.830;19.046;2023-04-15T08:43:45;99289.59;;;10.65;100.00
46347;BME280;32057;47.830;19.046;2023-04-15T08:46:12;99289.59;;;10.68;100.00
46347;BME280;32057;47.830;19.046;2023-04-15T08:48:37;99293.06;;;10.67;100.00
46347;BME280;32057;47.830;19.046;2023-04-15T08:51:05;99286.16;;;10.75;100.00
46347;BME280;32057;47.830;19.046;2023-04-15T08:53:31;99287.09;;;11.09;100.00
46347;BME280;32057;47.830;19.046;2023-04-15T08:55:59;99270.63;;;11.41;100.00
46347;BME280;32057;47.830;19.046;2023-04-15T08:58:27;99273.22;;;11.69;100.00
46347;BME280;32057;47.830;19.046;2023-04-15T09:00:52;99279.25;;;11.94;100.00
46347;BME280;32057;47.830;19.046;2023-04-15T09:03:18;99280.09;;;12.13;100.00
46347;BME280;32057;47.830;19.046;2023-04-15T09:05:45;99274.81;;;12.31;100.00
46347;BME280;32057;47.830;19.046;2023-04-15T09:08:11;99285.13;;;12.58;100.00
46347;BME280;32057;47.830;19.046;2023-04-15T09:10:37;99273.03;;;12.43;100.00
46347;BME280;32057;47.830;19.046;2023-04-15T09:13:02;99280.00;;;12.38;99.37
46347;BME280;32057;47.830;19.046;2023-04-15T09:15:29;99278.34;;;12.13;100.00
46347;BME280;32057;47.830;19.046;2023-04-15T09:17:57;99269.69;;;11.98;96.30
46347;BME280;32057;47.830;19.046;2023-04-15T09:20:22;99269.69;;;12.07;100.00
46347;BME280;32057;47.830;19.046;2023-04-15T09:22:48;99280.06;;;12.19;100.00
46347;BME280;32057;47.830;19.046;2023-04-15T09:27:51;99273.09;;;12.27;100.00
46347;BME280;32057;47.830;19.046;2023-04-15T09:30:17;99276.56;;;12.28;100.00
46347;BME280;32057;47.830;19.046;2023-04-15T09:32:53;99281.81;;;12.26;99.16
46347;BME280;32057;47.830;19.046;2023-04-15T09:35:20;99273.13;;;12.20;100.00
46347;BME280;32057;47.830;19.046;2023-04-15T09:37:46;99269.69;;;12.08;98.50
46347;BME280;32057;47.830;19.046;2023-04-15T09:40:11;99266.25;;;11.91;96.26
46347;BME280;32057;47.830;19.046;2023-04-15T09:42:53;99265.38;;;11.83;98.79
46347;BME280;32057;47.830;19.046;2023-04-15T09:45:20;99270.63;;;11.64;99.79
46347;BME280;32057;47.830;19.046;2023-04-15T09:47:46;99260.19;;;11.47;100.00
46347;BME280;32057;47.830;19.046;2023-04-15T09:50:11;99268.03;;;11.43;100.00
46347;BME280;32057;47.830;19.046;2023-04-15T09:52:41;99260.19;;;11.46;100.00
46347;BME280;32057;47.830;19.046;2023-04-15T09:55:10;99254.97;;;11.40;100.00
46347;BME280;32057;47.830;19.046;2023-04-15T09:57:37;99266.25;;;11.42;100.00
46347;BME280;32057;47.830;19.046;2023-04-15T10:00:07;99257.59;;;11.56;100.00
46347;BME280;32057;47.830;19.046;2023-04-15T10:02:36;99266.25;;;11.86;100.00
46347;BME280;32057;47.830;19.046;2023-04-15T10:05:01;99258.41;;;12.06;98.41
46347;BME280;32057;47.830;19.046;2023-04-15T10:07:27;99266.19;;;12.19;100.00
46347;BME280;32057;47.830;19.046;2023-04-15T10:09:53;99265.28;;;12.20;96.71
46347;BME280;32057;47.830;19.046;2023-04-15T10:12:21;99260.91;;;12.29;100.00
46347;BME280;32057;47.830;19.046;2023-04-15T10:14:59;99264.31;;;12.47;95.59
46347;BME280;32057;47.830;19.046;2023-04-15T10:17:29;99261.69;;;12.54;98.33
46347;BME280;32057;47.830;19.046;2023-04-15T10:20:00;99266.91;;;12.51;89.62
46347;BME280;32057;47.830;19.046;2023-04-15T10:22:27;99266.94;;;12.45;91.37
46347;BME280;32057;47.830;19.046;2023-04-15T10:24:54;99271.31;;;12.35;95.29
46347;BME280;32057;47.830;19.046;2023-04-15T10:27:20;99266.97;;;12.39;91.22
46347;BME280;32057;47.830;19.046;2023-04-15T10:29:48;99266.97;;;12.38;88.44
46347;BME280;32057;47.830;19.046;2023-04-15T10:32:14;99267.00;;;12.34;85.64
46347;BME280;32057;47.830;19.046;2023-04-15T10:34:41;99261.78;;;12.30;90.44
46347;BME280;32057;47.830;19.046;2023-04-15T10:37:08;99266.16;;;12.26;92.71
46347;BME280;32057;47.830;19.046;2023-04-15T10:42:18;99260.97;;;12.15;88.56
46347;BME280;32057;47.830;19.046;2023-04-15T10:44:48;99266.22;;;12.05;92.99
46347;BME280;32057;47.830;19.046;2023-04-15T10:47:16;99264.44;;;12.10;91.85
46347;BME280;32057;47.830;19.046;2023-04-15T10:49:56;99265.34;;;11.98;89.52
46347;BME280;32057;47.830;19.046;2023-04-15T10:52:24;99266.25;;;11.99;93.24
46347;BME280;32057;47.830;19.046;2023-04-15T10:55:19;99275.75;;;12.17;93.29
46347;BME280;32057;47.830;19.046;2023-04-15T10:57:45;99264.34;;;12.41;88.54
46347;BME280;32057;47.830;19.046;2023-04-15T11:00:11;99266.88;;;12.58;87.91
46347;BME280;32057;47.830;19.046;2023-04-15T11:02:56;99265.13;;;12.64;87.35
46347;BME280;32057;47.830;19.046;2023-04-15T11:08:07;99275.63;;;12.50;90.22
46347;BME280;32057;47.830;19.046;2023-04-15T11:13:02;99273.97;;;12.22;89.93
46347;BME280;32057;47.830;19.046;2023-04-15T11:17:55;99284.44;;;12.20;86.72
46347;BME280;32057;47.830;19.046;2023-04-15T11:20:21;99283.53;;;12.18;91.22
46347;BME280;32057;47.830;19.046;2023-04-15T11:22:50;99282.69;;;12.21;89.97
46347;BME280;32057;47.830;19.046;2023-04-15T11:25:27;99287.00;;;12.32;95.39
46347;BME280;32057;47.830;19.046;2023-04-15T11:27:54;99278.25;;;12.40;91.07
46347;BME280;32057;47.830;19.046;2023-04-15T11:30:21;99286.06;;;12.47;88.07
46347;BME280;32057;47.830;19.046;2023-04-15T11:32:48;99293.09;;;12.27;88.06
46347;BME280;32057;47.830;19.046;2023-04-15T11:35:15;99290.47;;;12.31;87.36
46347;BME280;32057;47.830;19.046;2023-04-15T11:37:41;99283.50;;;12.37;91.41
46347;BME280;32057;47.830;19.046;2023-04-15T11:40:07;99288.69;;;12.40;87.17
46347;BME280;32057;47.830;19.046;2023-04-15T11:42:33;99285.19;;;12.44;90.16
46347;BME280;32057;47.830;19.046;2023-04-15T11:45:25;99282.56;;;12.51;89.73
46347;BME280;32057;47.830;19.046;2023-04-15T11:47:50;99284.28;;;12.55;90.81
46347;BME280;32057;47.830;19.046;2023-04-15T11:50:20;99286.00;;;12.61;93.01
46347;BME280;32057;47.830;19.046;2023-04-15T11:52:56;99291.22;;;12.61;88.32
46347;BME280;32057;47.830;19.046;2023-04-15T11:55:25;99295.56;;;12.59;83.63
46347;BME280;32057;47.830;19.046;2023-04-15T12:00:36;99296.41;;;12.66;84.37
46347;BME280;32057;47.830;19.046;2023-04-15T12:13:53;99298.84;;;13.01;88.04
46347;BME280;32057;47.830;19.046;2023-04-15T12:16:21;99304.09;;;12.92;83.66
46347;BME280;32057;47.830;19.046;2023-04-15T12:18:54;99298.00;;;12.94;86.32
46347;BME280;32057;47.830;19.046;2023-04-15T12:21:31;99302.41;;;12.82;84.41
46347;BME280;32057;47.830;19.046;2023-04-15T12:24:01;99308.56;;;12.73;85.88
46347;BME280;32057;47.830;19.046;2023-04-15T12:26:36;99306.81;;;12.73;86.57
46347;BME280;32057;47.830;19.046;2023-04-15T12:29:04;99312.03;;;12.78;82.68
46347;BME280;32057;47.830;19.046;2023-04-15T12:31:30;99319.03;;;12.64;82.43
46347;BME280;32057;47.830;19.046;2023-04-15T12:33:56;99314.69;;;12.69;82.02
46347;BME280;32057;47.830;19.046;2023-04-15T12:36:22;99311.22;;;12.64;86.13
46347;BME280;32057;47.830;19.046;2023-04-15T12:38:48;99311.25;;;12.50;84.47
46347;BME280;32057;47.830;19.046;2023-04-15T12:41:14;99319.97;;;12.55;87.06
46347;BME280;32057;47.830;19.046;2023-04-15T12:43:39;99312.97;;;12.57;85.66
46347;BME280;32057;47.830;19.046;2023-04-15T12:46:05;99320.81;;;12.55;83.76
46347;BME280;32057;47.830;19.046;2023-04-15T12:48:33;99321.69;;;12.50;87.44
46347;BME280;32057;47.830;19.046;2023-04-15T12:50:58;99320.00;;;12.44;84.40
46347;BME280;32057;47.830;19.046;2023-04-15T12:53:24;99323.44;;;12.48;84.46
46347;BME280;32057;47.830;19.046;2023-04-15T12:55:50;99321.78;;;12.27;83.90
46347;BME280;32057;47.830;19.046;2023-04-15T12:58:16;99324.38;;;12.30;83.02
46347;BME280;32057;47.830;19.046;2023-04-15T13:00:41;99323.50;;;12.28;83.58
46347;BME280;32057;47.830;19.046;2023-04-15T13:03:07;99329.59;;;12.33;86.53
46347;BME280;32057;47.830;19.046;2023-04-15T13:05:32;99330.47;;;12.33;86.80
46347;BME280;32057;47.830;19.046;2023-04-15T13:07:58;99333.06;;;12.43;88.32
46347;BME280;32057;47.830;19.046;2023-04-15T13:10:23;99338.25;;;12.41;89.24